sensor_id;sensor_type;location;lat;lon;timestamp;temperature;humidity
4530;DHT22;2277;51.626;7.516;2022-08-19T00:01:57;21.80;99.90
4530;DHT22;2277;51.626;7.516;2022-08-19T00:04:26;21.80;99.90
4530;DHT22;2277;51.626;7.516;2022-08-19T00:06:53;21.70;99.90
4530;DHT22;2277;51.626;7.516;2022-08-19T00:09:21;21.70;99.90
4530;DHT22;2277;51.626;7.516;2022-08-19T00:11:47;21.70;99.90
4530;DHT22;2277;51.626;7.516;2022-08-19T00:14:16;21.70;99.90
4530;DHT22;2277;51.626;7.516;2022-08-19T00:16:44;21.60;99.90
4530;DHT22;2277;51.626;7.516;2022-08-19T00:19:11;21.60;99.90
4530;DHT22;2277;51.626;7.516;2022-08-19T00:21:37;21.60;99.90
4530;DHT22;2277;51.626;7.516;2022-08-19T00:24:09;21.60;99.90
4530;DHT22;2277;51.626;7.516;2022-08-19T00:26:36;21.50;99.90
4530;DHT22;2277;51.626;7.516;2022-08-19T00:29:03;21.50;99.90
4530;DHT22;2277;51.626;7.516;2022-08-19T00:31:29;21.60;99.90
4530;DHT22;2277;51.626;7.516;2022-08-19T00:33:56;21.50;99.90
4530;DHT22;2277;51.626;7.516;2022-08-19T00:36:22;21.50;99.90
4530;DHT22;2277;51.626;7.516;2022-08-19T00:38:48;21.50;99.90
4530;DHT22;2277;51.626;7.516;2022-08-19T00:41:18;21.50;99.90
4530;DHT22;2277;51.626;7.516;2022-08-19T00:44:09;21.40;99.90
4530;DHT22;2277;51.626;7.516;2022-08-19T00:46:38;21.40;99.90
4530;DHT22;2277;51.626;7.516;2022-08-19T00:49:12;21.30;99.90
4530;DHT22;2277;51.626;7.516;2022-08-19T00:51:41;21.30;99.90
4530;DHT22;2277;51.626;7.516;2022-08-19T00:54:07;21.30;99.90
4530;DHT22;2277;51.626;7.516;2022-08-19T00:56:34;21.30;99.90
4530;DHT22;2277;51.626;7.516;2022-08-19T00:59:01;21.30;99.90
4530;DHT22;2277;51.626;7.516;2022-08-19T01:01:27;21.30;99.90
4530;DHT22;2277;51.626;7.516;2022-08-19T01:03:53;21.20;99.90
4530;DHT22;2277;51.626;7.516;2022-08-19T01:06:19;21.20;99.90
4530;DHT22;2277;51.626;7.516;2022-08-19T01:08:44;21.20;99.90
4530;DHT22;2277;51.626;7.516;2022-08-19T01:11:10;21.20;99.90
4530;DHT22;2277;51.626;7.516;2022-08-19T01:13:37;21.20;99.90
4530;DHT22;2277;51.626;7.516;2022-08-19T01:16:05;21.20;99.90
4530;DHT22;2277;51.626;7.516;2022-08-19T01:18:35;21.20;99.90
4530;DHT22;2277;51.626;7.516;2022-08-19T01:21:10;21.10;99.90
4530;DHT22;2277;51.626;7.516;2022-08-19T01:23:36;21.10;99.90
4530;DHT22;2277;51.626;7.516;2022-08-19T01:26:10;21.10;99.90
4530;DHT22;2277;51.626;7.516;2022-08-19T01:28:37;21.10;99.90
4530;DHT22;2277;51.626;7.516;2022-08-19T01:31:04;21.00;99.90
4530;DHT22;2277;51.626;7.516;2022-08-19T01:33:30;21.00;99.90
4530;DHT22;2277;51.626;7.516;2022-08-19T01:36:24;21.00;99.90
4530;DHT22;2277;51.626;7.516;2022-08-19T01:38:51;20.90;99.90
4530;DHT22;2277;51.626;7.516;2022-08-19T01:41:18;20.90;99.90
4530;DHT22;2277;51.626;7.516;2022-08-19T01:43:44;20.90;99.90
4530;DHT22;2277;51.626;7.516;2022-08-19T01:46:10;20.90;99.90
4530;DHT22;2277;51.626;7.516;2022-08-19T01:48:38;20.90;99.90
4530;DHT22;2277;51.626;7.516;2022-08-19T01:51:06;20.90;99.90
4530;DHT22;2277;51.626;7.516;2022-08-19T01:53:32;20.90;99.90
4530;DHT22;2277;51.626;7.516;2022-08-19T01:55:58;20.80;99.90
4530;DHT22;2277;51.626;7.516;2022-08-19T01:58:27;20.80;99.90
4530;DHT22;2277;51.626;7.516;2022-08-19T02:00:56;20.80;99.90
4530;DHT22;2277;51.626;7.516;2022-08-19T02:03:21;20.80;99.90
4530;DHT22;2277;51.626;7.516;2022-08-19T02:05:53;20.80;99.90
4530;DHT22;2277;51.626;7.516;2022-08-19T02:08:18;20.80;99.90
4530;DHT22;2277;51.626;7.516;2022-08-19T02:10:44;20.80;99.90
4530;DHT22;2277;51.626;7.516;2022-08-19T02:13:11;20.80;99.90
4530;DHT22;2277;51.626;7.516;2022-08-19T02:15:37;20.70;99.90
4530;DHT22;2277;51.626;7.516;2022-08-19T02:18:03;20.70;99.90
4530;DHT22;2277;51.626;7.516;2022-08-19T02:20:29;20.70;99.90
4530;DHT22;2277;51.626;7.516;2022-08-19T02:22:54;20.70;99.90
4530;DHT22;2277;51.626;7.516;2022-08-19T02:25:20;20.70;99.90
4530;DHT22;2277;51.626;7.516;2022-08-19T02:27:46;20.70;99.90
4530;DHT22;2277;51.626;7.516;2022-08-19T02:30:14;20.70;99.90
4530;DHT22;2277;51.626;7.516;2022-08-19T02:32:41;20.60;99.90
4530;DHT22;2277;51.626;7.516;2022-08-19T02:35:07;20.60;99.90
4530;DHT22;2277;51.626;7.516;2022-08-19T02:37:33;20.60;99.90
4530;DHT22;2277;51.626;7.516;2022-08-19T02:40:18;20.50;99.90
4530;DHT22;2277;51.626;7.516;2022-08-19T02:42:44;20.50;99.90
4530;DHT22;2277;51.626;7.516;2022-08-19T02:45:11;20.50;99.90
4530;DHT22;2277;51.626;7.516;2022-08-19T02:47:37;20.50;99.90
4530;DHT22;2277;51.626;7.516;2022-08-19T02:50:03;20.50;99.90
4530;DHT22;2277;51.626;7.516;2022-08-19T02:52:29;20.50;99.90
4530;DHT22;2277;51.626;7.516;2022-08-19T02:54:56;20.50;99.90
4530;DHT22;2277;51.626;7.516;2022-08-19T02:57:23;20.40;99.90
4530;DHT22;2277;51.626;7.516;2022-08-19T02:59:49;20.40;99.90
4530;DHT22;2277;51.626;7.516;2022-08-19T03:02:15;20.40;99.90
4530;DHT22;2277;51.626;7.516;2022-08-19T03:04:41;20.40;99.90
4530;DHT22;2277;51.626;7.516;2022-08-19T03:07:07;20.40;99.90
4530;DHT22;2277;51.626;7.516;2022-08-19T03:09:36;20.40;99.90
4530;DHT22;2277;51.626;7.516;2022-08-19T03:12:06;20.40;99.90
4530;DHT22;2277;51.626;7.516;2022-08-19T03:14:32;20.30;99.90
4530;DHT22;2277;51.626;7.516;2022-08-19T03:16:59;20.30;99.90
4530;DHT22;2277;51.626;7.516;2022-08-19T03:19:25;20.30;99.90
4530;DHT22;2277;51.626;7.516;2022-08-19T03:21:51;20.30;99.90
4530;DHT22;2277;51.626;7.516;2022-08-19T03:24:17;20.20;99.90
4530;DHT22;2277;51.626;7.516;2022-08-19T03:26:50;20.20;99.90
4530;DHT22;2277;51.626;7.516;2022-08-19T03:29:17;20.20;99.90
4530;DHT22;2277;51.626;7.516;2022-08-19T03:31:44;20.20;99.90
4530;DHT22;2277;51.626;7.516;2022-08-19T03:34:15;20.20;99.90
4530;DHT22;2277;51.626;7.516;2022-08-19T03:36:42;20.20;99.90
4530;DHT22;2277;51.626;7.516;2022-08-19T03:39:10;20.20;99.90
4530;DHT22;2277;51.626;7.516;2022-08-19T03:41:38;20.20;99.90
4530;DHT22;2277;51.626;7.516;2022-08-19T03:44:04;20.20;99.90
4530;DHT22;2277;51.626;7.516;2022-08-19T03:46:32;20.20;99.90
4530;DHT22;2277;51.626;7.516;2022-08-19T03:49:00;20.10;99.90
4530;DHT22;2277;51.626;7.516;2022-08-19T03:51:28;20.10;99.90
4530;DHT22;2277;51.626;7.516;2022-08-19T03:53:56;20.10;99.90
4530;DHT22;2277;51.626;7.516;2022-08-19T03:56:22;20.10;99.90
4530;DHT22;2277;51.626;7.516;2022-08-19T03:58:48;20.10;99.90
4530;DHT22;2277;51.626;7.516;2022-08-19T04:01:17;20.10;99.90
4530;DHT22;2277;51.626;7.516;2022-08-19T04:03:44;20.00;99.90
4530;DHT22;2277;51.626;7.516;2022-08-19T04:08:44;20.00;99.90
4530;DHT22;2277;51.626;7.516;2022-08-19T04:11:13;20.00;99.90
4530;DHT22;2277;51.626;7.516;2022-08-19T04:13:39;20.00;99.90
4530;DHT22;2277;51.626;7.516;2022-08-19T04:16:06;20.00;99.90
4530;DHT22;2277;51.626;7.516;2022-08-19T04:18:33;20.00;99.90
4530;DHT22;2277;51.626;7.516;2022-08-19T04:20:59;20.00;99.90
4530;DHT22;2277;51.626;7.516;2022-08-19T04:23:25;20.00;99.90
4530;DHT22;2277;51.626;7.516;2022-08-19T04:25:53;19.90;99.90
4530;DHT22;2277;51.626;7.516;2022-08-19T04:28:19;19.90;99.90
4530;DHT22;2277;51.626;7.516;2022-08-19T04:30:50;19.90;99.90
4530;DHT22;2277;51.626;7.516;2022-08-19T04:33:18;19.90;99.90
4530;DHT22;2277;51.626;7.516;2022-08-19T04:35:47;19.90;99.90
4530;DHT22;2277;51.626;7.516;2022-08-19T04:38:14;19.90;99.90
4530;DHT22;2277;51.626;7.516;2022-08-19T04:40:42;19.90;99.90
4530;DHT22;2277;51.626;7.516;2022-08-19T04:43:27;19.90;99.90
4530;DHT22;2277;51.626;7.516;2022-08-19T04:45:53;19.80;99.90
4530;DHT22;2277;51.626;7.516;2022-08-19T04:48:19;19.80;99.90
4530;DHT22;2277;51.626;7.516;2022-08-19T04:50:54;19.80;99.90
4530;DHT22;2277;51.626;7.516;2022-08-19T04:53:27;19.80;99.90
4530;DHT22;2277;51.626;7.516;2022-08-19T04:55:55;19.80;99.90
4530;DHT22;2277;51.626;7.516;2022-08-19T04:58:22;19.80;99.90
4530;DHT22;2277;51.626;7.516;2022-08-19T05:00:48;19.80;99.90
4530;DHT22;2277;51.626;7.516;2022-08-19T05:03:14;19.90;99.90
4530;DHT22;2277;51.626;7.516;2022-08-19T05:05:43;19.80;99.90
4530;DHT22;2277;51.626;7.516;2022-08-19T05:08:13;19.90;99.90
4530;DHT22;2277;51.626;7.516;2022-08-19T05:10:43;19.90;99.90
4530;DHT22;2277;51.626;7.516;2022-08-19T05:13:09;19.90;99.90
4530;DHT22;2277;51.626;7.516;2022-08-19T05:15:36;19.90;99.90
4530;DHT22;2277;51.626;7.516;2022-08-19T05:18:02;19.90;99.90
4530;DHT22;2277;51.626;7.516;2022-08-19T05:20:46;19.90;99.90
4530;DHT22;2277;51.626;7.516;2022-08-19T05:23:30;19.90;99.90
4530;DHT22;2277;51.626;7.516;2022-08-19T05:25:56;19.90;99.90
4530;DHT22;2277;51.626;7.516;2022-08-19T05:28:21;20.00;99.90
4530;DHT22;2277;51.626;7.516;2022-08-19T05:30:47;20.00;99.90
4530;DHT22;2277;51.626;7.516;2022-08-19T05:33:14;20.00;99.90
4530;DHT22;2277;51.626;7.516;2022-08-19T05:35:39;20.00;99.90
4530;DHT22;2277;51.626;7.516;2022-08-19T05:38:07;20.00;99.90
4530;DHT22;2277;51.626;7.516;2022-08-19T05:40:37;20.10;99.90
4530;DHT22;2277;51.626;7.516;2022-08-19T05:43:05;20.10;99.90
4530;DHT22;2277;51.626;7.516;2022-08-19T05:45:31;20.10;99.90
4530;DHT22;2277;51.626;7.516;2022-08-19T05:47:57;20.20;99.90
4530;DHT22;2277;51.626;7.516;2022-08-19T05:50:24;20.20;99.90
4530;DHT22;2277;51.626;7.516;2022-08-19T05:52:50;20.20;99.90
4530;DHT22;2277;51.626;7.516;2022-08-19T05:55:16;20.20;99.90
4530;DHT22;2277;51.626;7.516;2022-08-19T05:57:41;20.20;99.90
4530;DHT22;2277;51.626;7.516;2022-08-19T06:00:08;20.30;99.90
4530;DHT22;2277;51.626;7.516;2022-08-19T06:02:36;20.30;99.90
4530;DHT22;2277;51.626;7.516;2022-08-19T06:05:03;20.30;99.90
4530;DHT22;2277;51.626;7.516;2022-08-19T06:07:31;20.30;99.90
4530;DHT22;2277;51.626;7.516;2022-08-19T06:09:56;20.40;99.90
4530;DHT22;2277;51.626;7.516;2022-08-19T06:12:22;20.40;99.90
4530;DHT22;2277;51.626;7.516;2022-08-19T06:14:53;20.40;99.90
4530;DHT22;2277;51.626;7.516;2022-08-19T06:17:20;20.40;99.90
4530;DHT22;2277;51.626;7.516;2022-08-19T06:19:50;20.50;99.90
4530;DHT22;2277;51.626;7.516;2022-08-19T06:22:16;20.50;99.90
4530;DHT22;2277;51.626;7.516;2022-08-19T06:24:41;20.50;99.90
4530;DHT22;2277;51.626;7.516;2022-08-19T06:27:07;20.60;99.90
4530;DHT22;2277;51.626;7.516;2022-08-19T06:29:33;20.70;99.90
4530;DHT22;2277;51.626;7.516;2022-08-19T06:32:01;20.70;99.90
4530;DHT22;2277;51.626;7.516;2022-08-19T06:34:29;20.80;99.90
4530;DHT22;2277;51.626;7.516;2022-08-19T06:36:57;20.80;99.90
4530;DHT22;2277;51.626;7.516;2022-08-19T06:39:32;20.90;99.90
4530;DHT22;2277;51.626;7.516;2022-08-19T06:42:00;20.90;99.90
4530;DHT22;2277;51.626;7.516;2022-08-19T06:44:29;20.90;99.90
4530;DHT22;2277;51.626;7.516;2022-08-19T06:46:56;21.00;99.90
4530;DHT22;2277;51.626;7.516;2022-08-19T06:49:23;21.00;99.90
4530;DHT22;2277;51.626;7.516;2022-08-19T06:51:50;21.20;99.90
4530;DHT22;2277;51.626;7.516;2022-08-19T06:54:17;21.30;99.90
4530;DHT22;2277;51.626;7.516;2022-08-19T06:56:43;21.40;99.90
4530;DHT22;2277;51.626;7.516;2022-08-19T06:59:15;21.50;99.90
4530;DHT22;2277;51.626;7.516;2022-08-19T07:01:44;21.50;99.90
4530;DHT22;2277;51.626;7.516;2022-08-19T07:04:13;21.60;99.90
4530;DHT22;2277;51.626;7.516;2022-08-19T07:06:39;21.70;99.90
4530;DHT22;2277;51.626;7.516;2022-08-19T07:09:08;21.80;99.90
4530;DHT22;2277;51.626;7.516;2022-08-19T07:11:34;21.80;99.90
4530;DHT22;2277;51.626;7.516;2022-08-19T07:14:00;21.80;99.90
4530;DHT22;2277;51.626;7.516;2022-08-19T07:16:26;21.80;99.90
4530;DHT22;2277;51.626;7.516;2022-08-19T07:18:53;21.90;99.90
4530;DHT22;2277;51.626;7.516;2022-08-19T07:21:21;21.90;99.90
4530;DHT22;2277;51.626;7.516;2022-08-19T07:23:48;22.00;99.90
4530;DHT22;2277;51.626;7.516;2022-08-19T07:26:16;22.10;99.90
4530;DHT22;2277;51.626;7.516;2022-08-19T07:28:43;22.10;99.90
4530;DHT22;2277;51.626;7.516;2022-08-19T07:31:14;22.20;99.90
4530;DHT22;2277;51.626;7.516;2022-08-19T07:33:40;22.40;99.90
4530;DHT22;2277;51.626;7.516;2022-08-19T07:36:09;22.60;99.90
4530;DHT22;2277;51.626;7.516;2022-08-19T07:38:37;22.70;99.90
4530;DHT22;2277;51.626;7.516;2022-08-19T07:41:03;22.80;99.90
4530;DHT22;2277;51.626;7.516;2022-08-19T07:43:29;22.80;99.90
4530;DHT22;2277;51.626;7.516;2022-08-19T07:45:55;22.90;99.90
4530;DHT22;2277;51.626;7.516;2022-08-19T07:48:24;23.00;99.90
4530;DHT22;2277;51.626;7.516;2022-08-19T07:50:58;23.10;99.90
4530;DHT22;2277;51.626;7.516;2022-08-19T07:53:28;23.20;99.90
4530;DHT22;2277;51.626;7.516;2022-08-19T07:55:54;23.30;99.90
4530;DHT22;2277;51.626;7.516;2022-08-19T07:58:21;23.50;99.90
4530;DHT22;2277;51.626;7.516;2022-08-19T08:00:49;23.60;99.90
4530;DHT22;2277;51.626;7.516;2022-08-19T08:03:17;23.60;99.90
4530;DHT22;2277;51.626;7.516;2022-08-19T08:05:44;23.60;99.90
4530;DHT22;2277;51.626;7.516;2022-08-19T08:08:28;23.70;99.90
4530;DHT22;2277;51.626;7.516;2022-08-19T08:11:14;23.70;99.90
4530;DHT22;2277;51.626;7.516;2022-08-19T08:13:40;23.70;99.90
4530;DHT22;2277;51.626;7.516;2022-08-19T08:16:07;23.80;99.90
4530;DHT22;2277;51.626;7.516;2022-08-19T08:18:33;23.90;99.90
4530;DHT22;2277;51.626;7.516;2022-08-19T08:20:59;23.90;99.90
4530;DHT22;2277;51.626;7.516;2022-08-19T08:23:26;24.00;99.90
4530;DHT22;2277;51.626;7.516;2022-08-19T08:25:54;24.20;99.90
4530;DHT22;2277;51.626;7.516;2022-08-19T08:28:21;24.30;99.90
4530;DHT22;2277;51.626;7.516;2022-08-19T08:30:47;24.60;99.90
4530;DHT22;2277;51.626;7.516;2022-08-19T08:33:18;24.70;99.90
4530;DHT22;2277;51.626;7.516;2022-08-19T08:35:44;24.90;99.90
4530;DHT22;2277;51.626;7.516;2022-08-19T08:38:11;25.10;99.90
4530;DHT22;2277;51.626;7.516;2022-08-19T08:40:48;25.20;99.90
4530;DHT22;2277;51.626;7.516;2022-08-19T08:43:33;25.50;99.90
4530;DHT22;2277;51.626;7.516;2022-08-19T08:46:08;25.80;99.90
4530;DHT22;2277;51.626;7.516;2022-08-19T08:48:44;26.00;99.90
4530;DHT22;2277;51.626;7.516;2022-08-19T08:51:17;26.20;99.90
4530;DHT22;2277;51.626;7.516;2022-08-19T08:53:45;26.40;99.90
4530;DHT22;2277;51.626;7.516;2022-08-19T08:56:12;26.60;99.90
4530;DHT22;2277;51.626;7.516;2022-08-19T08:59:20;26.80;99.90
4530;DHT22;2277;51.626;7.516;2022-08-19T09:01:43;27.10;99.90
4530;DHT22;2277;51.626;7.516;2022-08-19T09:04:12;27.10;99.90
4530;DHT22;2277;51.626;7.516;2022-08-19T09:07:04;27.20;99.90
4530;DHT22;2277;51.626;7.516;2022-08-19T09:09:41;27.20;99.90
4530;DHT22;2277;51.626;7.516;2022-08-19T09:14:57;27.20;99.90
4530;DHT22;2277;51.626;7.516;2022-08-19T09:17:27;27.40;99.90
4530;DHT22;2277;51.626;7.516;2022-08-19T09:20:03;27.50;99.90
4530;DHT22;2277;51.626;7.516;2022-08-19T09:22:33;27.90;99.90
4530;DHT22;2277;51.626;7.516;2022-08-19T09:24:59;28.10;99.90
4530;DHT22;2277;51.626;7.516;2022-08-19T09:27:26;28.30;99.90
4530;DHT22;2277;51.626;7.516;2022-08-19T09:29:52;28.50;99.90
4530;DHT22;2277;51.626;7.516;2022-08-19T09:32:20;28.70;99.90
4530;DHT22;2277;51.626;7.516;2022-08-19T09:34:46;28.80;99.90
4530;DHT22;2277;51.626;7.516;2022-08-19T09:37:12;28.90;99.90
4530;DHT22;2277;51.626;7.516;2022-08-19T09:39:38;29.10;99.90
4530;DHT22;2277;51.626;7.516;2022-08-19T09:42:09;29.10;99.90
4530;DHT22;2277;51.626;7.516;2022-08-19T09:44:40;29.00;99.90
4530;DHT22;2277;51.626;7.516;2022-08-19T09:47:08;29.10;99.90
4530;DHT22;2277;51.626;7.516;2022-08-19T09:49:33;29.20;99.90
4530;DHT22;2277;51.626;7.516;2022-08-19T09:51:59;29.10;99.90
4530;DHT22;2277;51.626;7.516;2022-08-19T09:54:25;29.40;99.90
4530;DHT22;2277;51.626;7.516;2022-08-19T09:56:54;29.60;99.90
4530;DHT22;2277;51.626;7.516;2022-08-19T09:59:20;29.90;99.90
4530;DHT22;2277;51.626;7.516;2022-08-19T10:01:46;30.20;99.90
4530;DHT22;2277;51.626;7.516;2022-08-19T10:04:12;30.40;99.90
4530;DHT22;2277;51.626;7.516;2022-08-19T10:06:39;30.40;99.90
4530;DHT22;2277;51.626;7.516;2022-08-19T10:09:07;30.40;99.90
4530;DHT22;2277;51.626;7.516;2022-08-19T10:11:34;30.70;99.90
4530;DHT22;2277;51.626;7.516;2022-08-19T10:14:02;30.90;99.90
4530;DHT22;2277;51.626;7.516;2022-08-19T10:16:30;31.10;99.90
4530;DHT22;2277;51.626;7.516;2022-08-19T10:18:57;31.00;99.90
4530;DHT22;2277;51.626;7.516;2022-08-19T10:21:25;31.00;99.90
4530;DHT22;2277;51.626;7.516;2022-08-19T10:23:52;30.90;99.90
4530;DHT22;2277;51.626;7.516;2022-08-19T10:26:22;30.70;99.90
4530;DHT22;2277;51.626;7.516;2022-08-19T10:28:49;30.60;99.90
4530;DHT22;2277;51.626;7.516;2022-08-19T10:31:24;30.60;99.90
4530;DHT22;2277;51.626;7.516;2022-08-19T10:33:51;30.50;99.90
4530;DHT22;2277;51.626;7.516;2022-08-19T10:36:41;30.40;99.90
4530;DHT22;2277;51.626;7.516;2022-08-19T10:39:08;30.30;99.90
4530;DHT22;2277;51.626;7.516;2022-08-19T10:41:36;30.50;99.90
4530;DHT22;2277;51.626;7.516;2022-08-19T10:44:12;30.80;99.90
4530;DHT22;2277;51.626;7.516;2022-08-19T10:46:41;31.00;99.90
4530;DHT22;2277;51.626;7.516;2022-08-19T10:49:09;31.10;99.90
4530;DHT22;2277;51.626;7.516;2022-08-19T10:51:35;31.30;99.90
4530;DHT22;2277;51.626;7.516;2022-08-19T10:54:21;31.50;99.90
4530;DHT22;2277;51.626;7.516;2022-08-19T10:56:46;31.80;99.90
4530;DHT22;2277;51.626;7.516;2022-08-19T10:59:23;31.90;99.90
4530;DHT22;2277;51.626;7.516;2022-08-19T11:01:51;32.00;99.80
4530;DHT22;2277;51.626;7.516;2022-08-19T11:04:18;32.40;98.90
4530;DHT22;2277;51.626;7.516;2022-08-19T11:06:46;32.40;98.00
4530;DHT22;2277;51.626;7.516;2022-08-19T11:09:21;32.50;98.80
4530;DHT22;2277;51.626;7.516;2022-08-19T11:11:49;32.70;97.80
4530;DHT22;2277;51.626;7.516;2022-08-19T11:14:17;32.70;97.70
4530;DHT22;2277;51.626;7.516;2022-08-19T11:16:49;32.50;97.70
4530;DHT22;2277;51.626;7.516;2022-08-19T11:19:16;32.40;97.60
4530;DHT22;2277;51.626;7.516;2022-08-19T11:21:45;32.40;98.00
4530;DHT22;2277;51.626;7.516;2022-08-19T11:24:20;32.60;98.20
4530;DHT22;2277;51.626;7.516;2022-08-19T11:26:47;32.60;97.90
4530;DHT22;2277;51.626;7.516;2022-08-19T11:29:15;32.60;98.00
4530;DHT22;2277;51.626;7.516;2022-08-19T11:31:43;32.50;97.70
4530;DHT22;2277;51.626;7.516;2022-08-19T11:34:12;32.40;97.80
4530;DHT22;2277;51.626;7.516;2022-08-19T11:36:41;32.30;97.80
4530;DHT22;2277;51.626;7.516;2022-08-19T11:39:09;32.40;97.80
4530;DHT22;2277;51.626;7.516;2022-08-19T11:41:34;32.60;97.70
4530;DHT22;2277;51.626;7.516;2022-08-19T11:44:00;32.80;97.00
4530;DHT22;2277;51.626;7.516;2022-08-19T11:46:28;32.90;96.40
4530;DHT22;2277;51.626;7.516;2022-08-19T11:48:57;32.80;96.10
4530;DHT22;2277;51.626;7.516;2022-08-19T11:51:25;32.60;95.60
4530;DHT22;2277;51.626;7.516;2022-08-19T11:53:52;32.50;95.30
4530;DHT22;2277;51.626;7.516;2022-08-19T11:56:19;32.50;94.80
4530;DHT22;2277;51.626;7.516;2022-08-19T11:58:45;32.50;94.40
4530;DHT22;2277;51.626;7.516;2022-08-19T12:01:13;32.50;93.80
4530;DHT22;2277;51.626;7.516;2022-08-19T12:03:40;32.60;93.30
4530;DHT22;2277;51.626;7.516;2022-08-19T12:06:08;32.60;93.40
4530;DHT22;2277;51.626;7.516;2022-08-19T12:08:33;32.70;93.30
4530;DHT22;2277;51.626;7.516;2022-08-19T12:10:59;32.80;92.00
4530;DHT22;2277;51.626;7.516;2022-08-19T12:13:29;33.00;91.40
4530;DHT22;2277;51.626;7.516;2022-08-19T12:15:55;32.90;90.60
4530;DHT22;2277;51.626;7.516;2022-08-19T12:18:21;32.90;90.20
4530;DHT22;2277;51.626;7.516;2022-08-19T12:20:47;32.90;90.30
4530;DHT22;2277;51.626;7.516;2022-08-19T12:23:13;32.90;90.50
4530;DHT22;2277;51.626;7.516;2022-08-19T12:25:46;32.80;91.60
4530;DHT22;2277;51.626;7.516;2022-08-19T12:28:15;32.80;91.50
4530;DHT22;2277;51.626;7.516;2022-08-19T12:30:41;32.60;91.50
4530;DHT22;2277;51.626;7.516;2022-08-19T12:33:08;32.30;92.10
4530;DHT22;2277;51.626;7.516;2022-08-19T12:35:34;32.30;92.40
4530;DHT22;2277;51.626;7.516;2022-08-19T12:37:59;32.30;92.30
4530;DHT22;2277;51.626;7.516;2022-08-19T12:40:28;32.30;91.20
4530;DHT22;2277;51.626;7.516;2022-08-19T12:42:54;32.30;91.10
4530;DHT22;2277;51.626;7.516;2022-08-19T12:45:20;32.40;90.10
4530;DHT22;2277;51.626;7.516;2022-08-19T12:47:45;32.60;89.70
4530;DHT22;2277;51.626;7.516;2022-08-19T12:50:12;32.70;88.20
4530;DHT22;2277;51.626;7.516;2022-08-19T12:52:38;32.60;87.00
4530;DHT22;2277;51.626;7.516;2022-08-19T12:55:05;32.30;88.60
4530;DHT22;2277;51.626;7.516;2022-08-19T12:57:31;32.20;90.50
4530;DHT22;2277;51.626;7.516;2022-08-19T13:00:15;32.40;91.30
4530;DHT22;2277;51.626;7.516;2022-08-19T13:02:44;32.50;91.70
4530;DHT22;2277;51.626;7.516;2022-08-19T13:05:13;32.50;90.30
4530;DHT22;2277;51.626;7.516;2022-08-19T13:07:40;32.40;90.50
4530;DHT22;2277;51.626;7.516;2022-08-19T13:10:07;32.60;90.30
4530;DHT22;2277;51.626;7.516;2022-08-19T13:12:33;32.80;90.00
4530;DHT22;2277;51.626;7.516;2022-08-19T13:14:59;32.90;88.30
4530;DHT22;2277;51.626;7.516;2022-08-19T13:17:24;32.70;87.30
4530;DHT22;2277;51.626;7.516;2022-08-19T13:19:50;32.60;86.90
4530;DHT22;2277;51.626;7.516;2022-08-19T13:22:16;32.60;86.80
4530;DHT22;2277;51.626;7.516;2022-08-19T13:24:42;32.70;84.90
4530;DHT22;2277;51.626;7.516;2022-08-19T13:27:07;32.90;83.60
4530;DHT22;2277;51.626;7.516;2022-08-19T13:29:33;33.10;84.70
4530;DHT22;2277;51.626;7.516;2022-08-19T13:32:17;33.30;82.90
4530;DHT22;2277;51.626;7.516;2022-08-19T13:35:03;33.50;81.00
4530;DHT22;2277;51.626;7.516;2022-08-19T13:37:29;33.50;79.10
4530;DHT22;2277;51.626;7.516;2022-08-19T13:40:23;33.50;79.60
4530;DHT22;2277;51.626;7.516;2022-08-19T13:42:53;33.50;79.20
4530;DHT22;2277;51.626;7.516;2022-08-19T13:45:22;33.60;79.50
4530;DHT22;2277;51.626;7.516;2022-08-19T13:47:51;33.70;76.90
4530;DHT22;2277;51.626;7.516;2022-08-19T13:50:20;33.70;76.20
4530;DHT22;2277;51.626;7.516;2022-08-19T13:52:46;33.70;76.80
4530;DHT22;2277;51.626;7.516;2022-08-19T13:55:13;33.70;77.60
4530;DHT22;2277;51.626;7.516;2022-08-19T13:57:39;33.80;76.50
4530;DHT22;2277;51.626;7.516;2022-08-19T14:00:07;33.90;78.90
4530;DHT22;2277;51.626;7.516;2022-08-19T14:02:35;33.90;79.60
4530;DHT22;2277;51.626;7.516;2022-08-19T14:05:04;34.00;80.50
4530;DHT22;2277;51.626;7.516;2022-08-19T14:07:30;34.20;78.10
4530;DHT22;2277;51.626;7.516;2022-08-19T14:09:56;34.10;78.00
4530;DHT22;2277;51.626;7.516;2022-08-19T14:12:21;34.20;78.40
4530;DHT22;2277;51.626;7.516;2022-08-19T14:14:48;34.30;76.60
4530;DHT22;2277;51.626;7.516;2022-08-19T14:17:13;34.20;77.30
4530;DHT22;2277;51.626;7.516;2022-08-19T14:19:39;34.20;76.60
4530;DHT22;2277;51.626;7.516;2022-08-19T14:22:04;34.20;76.30
4530;DHT22;2277;51.626;7.516;2022-08-19T14:24:30;34.20;75.20
4530;DHT22;2277;51.626;7.516;2022-08-19T14:26:57;34.20;74.90
4530;DHT22;2277;51.626;7.516;2022-08-19T14:29:23;34.30;74.40
4530;DHT22;2277;51.626;7.516;2022-08-19T14:31:49;34.40;74.00
4530;DHT22;2277;51.626;7.516;2022-08-19T14:34:15;34.40;73.60
4530;DHT22;2277;51.626;7.516;2022-08-19T14:36:40;34.30;74.60
4530;DHT22;2277;51.626;7.516;2022-08-19T14:39:07;34.20;74.10
4530;DHT22;2277;51.626;7.516;2022-08-19T14:41:35;34.20;73.00
4530;DHT22;2277;51.626;7.516;2022-08-19T14:44:01;34.20;72.60
4530;DHT22;2277;51.626;7.516;2022-08-19T14:46:28;34.00;72.90
4530;DHT22;2277;51.626;7.516;2022-08-19T14:48:55;33.90;72.20
4530;DHT22;2277;51.626;7.516;2022-08-19T14:51:22;33.80;71.80
4530;DHT22;2277;51.626;7.516;2022-08-19T14:53:48;33.90;72.80
4530;DHT22;2277;51.626;7.516;2022-08-19T14:56:18;33.90;72.60
4530;DHT22;2277;51.626;7.516;2022-08-19T14:58:44;34.00;71.00
4530;DHT22;2277;51.626;7.516;2022-08-19T15:01:11;33.90;70.20
4530;DHT22;2277;51.626;7.516;2022-08-19T15:03:37;33.80;70.00
4530;DHT22;2277;51.626;7.516;2022-08-19T15:06:04;33.70;70.30
4530;DHT22;2277;51.626;7.516;2022-08-19T15:08:32;33.70;70.70
4530;DHT22;2277;51.626;7.516;2022-08-19T15:11:00;33.60;70.90
4530;DHT22;2277;51.626;7.516;2022-08-19T15:13:28;33.70;70.10
4530;DHT22;2277;51.626;7.516;2022-08-19T15:15:54;33.70;70.00
4530;DHT22;2277;51.626;7.516;2022-08-19T15:18:20;33.70;68.80
4530;DHT22;2277;51.626;7.516;2022-08-19T15:20:47;33.60;69.00
4530;DHT22;2277;51.626;7.516;2022-08-19T15:23:14;33.50;69.70
4530;DHT22;2277;51.626;7.516;2022-08-19T15:25:41;33.50;69.70
4530;DHT22;2277;51.626;7.516;2022-08-19T15:28:08;33.40;70.30
4530;DHT22;2277;51.626;7.516;2022-08-19T15:30:37;33.30;70.90
4530;DHT22;2277;51.626;7.516;2022-08-19T15:33:03;33.30;70.30
4530;DHT22;2277;51.626;7.516;2022-08-19T15:35:29;33.30;68.50
4530;DHT22;2277;51.626;7.516;2022-08-19T15:37:55;33.20;69.00
4530;DHT22;2277;51.626;7.516;2022-08-19T15:40:22;33.10;68.80
4530;DHT22;2277;51.626;7.516;2022-08-19T15:42:48;33.00;68.70
4530;DHT22;2277;51.626;7.516;2022-08-19T15:45:16;32.90;69.60
4530;DHT22;2277;51.626;7.516;2022-08-19T15:47:42;32.80;70.60
4530;DHT22;2277;51.626;7.516;2022-08-19T15:50:12;32.70;69.60
4530;DHT22;2277;51.626;7.516;2022-08-19T15:52:49;32.50;71.00
4530;DHT22;2277;51.626;7.516;2022-08-19T15:55:16;32.30;70.90
4530;DHT22;2277;51.626;7.516;2022-08-19T15:57:42;32.20;72.50
4530;DHT22;2277;51.626;7.516;2022-08-19T16:00:26;32.10;73.50
4530;DHT22;2277;51.626;7.516;2022-08-19T16:03:13;32.00;73.50
4530;DHT22;2277;51.626;7.516;2022-08-19T16:05:59;31.80;73.40
4530;DHT22;2277;51.626;7.516;2022-08-19T16:08:43;31.70;73.90
4530;DHT22;2277;51.626;7.516;2022-08-19T16:11:12;31.60;73.80
4530;DHT22;2277;51.626;7.516;2022-08-19T16:13:38;31.70;73.90
4530;DHT22;2277;51.626;7.516;2022-08-19T16:16:05;31.50;74.30